Wednesday, June 20, 2018, 10:56 AM EDT
Back to Local

KMTN, Baltimore / Martin

Location: Middle River, MD, United States Lat: 39.333
Local Time: 10:56 AM EDT (14:56 GMT) Lon: -76.417
Time Zone: US/Eastern Elev: 22 ft

Show me the last for .
Show Decoded

2018-06-20 09:55 METAR KMTN 201355Z 00000KT 10SM FEW150 26/18 A2989 =
2018-06-20 08:50 METAR KMTN 201250Z 00000KT 10SM BKN060 26/17 A2990 =
2018-06-20 07:50 METAR KMTN 201150Z 00000KT 10SM SCT060 23/26 A2990 =
2018-06-20 06:53 METAR KMTN 201053Z 00000KT 10SM SCT060 BKN250 21/16 A2990 =
2018-06-20 05:45 METAR KMTN 200945Z 00000KT 10SM SCT065 BKN250 21/15 A2989 =
2018-06-20 05:30 METAR KMTN 200930Z AUTO 00000KT 10SM CLR 20/15 A2989 RMK AO2 =
2018-06-20 05:15 METAR KMTN 200915Z AUTO 00000KT 10SM CLR 20/15 A2989 RMK AO2 =
2018-06-20 04:57 METAR KMTN 200857Z AUTO 00000KT 10SM SCT065 21/15 A2988 RMK AO2 =
2018-06-20 04:36 METAR KMTN 200836Z AUTO 00000KT 10SM SCT065 21/15 A2988 RMK AO2 =
2018-06-20 04:15 METAR KMTN 200815Z AUTO 00000KT 10SM CLR 20/15 A2988 RMK AO2 =
2018-06-20 03:57 METAR KMTN 200757Z AUTO 00000KT 10SM CLR 21/15 A2988 RMK AO2 =
2018-06-20 03:36 METAR KMTN 200736Z AUTO 00000KT 10SM CLR 21/15 A2988 RMK AO2 =
2018-06-20 03:15 METAR KMTN 200715Z AUTO 00000KT 10SM CLR 21/15 A2988 RMK AO2 =
2018-06-20 02:57 METAR KMTN 200657Z AUTO 00000KT 10SM CLR 21/16 A2988 RMK AO2 =
2018-06-20 02:36 METAR KMTN 200636Z AUTO 00000KT 10SM CLR 21/16 A2988 RMK AO2 =
2018-06-20 02:15 METAR KMTN 200615Z AUTO 00000KT 10SM CLR 21/16 A2988 RMK AO2 =
2018-06-20 01:57 METAR KMTN 200557Z AUTO 00000KT 10SM CLR 21/17 A2989 RMK AO2 =
2018-06-20 01:36 METAR KMTN 200536Z AUTO 00000KT 10SM CLR 21/17 A2989 RMK AO2 =
2018-06-20 01:15 METAR KMTN 200515Z AUTO 00000KT 10SM CLR 22/16 A2989 RMK AO2 =
2018-06-20 00:57 METAR KMTN 200457Z AUTO 00000KT 10SM CLR 23/17 A2988 RMK AO2 =
2018-06-20 00:36 METAR KMTN 200436Z AUTO 00000KT 10SM CLR 22/17 A2989 RMK AO2 =
2018-06-20 00:15 METAR KMTN 200415Z AUTO 00000KT 10SM CLR 23/17 A2988 RMK AO2 =
2018-06-19 23:57 METAR KMTN 200357Z AUTO 00000KT 10SM CLR 23/17 A2988 RMK AO2 =
2018-06-19 23:36 METAR KMTN 200336Z AUTO 00000KT 10SM CLR 23/17 A2988 RMK AO2 =
2018-06-19 23:15 METAR KMTN 200315Z AUTO 00000KT 10SM CLR 23/18 A2987 RMK AO2 =
2018-06-19 22:57 METAR KMTN 200257Z AUTO 00000KT 10SM CLR 24/18 A2988 RMK AO2 =
2018-06-19 22:36 METAR KMTN 200236Z AUTO 00000KT 10SM CLR 25/19 A2988 RMK AO2 =
2018-06-19 21:45 METAR KMTN 200145Z 34003KT 10SM SCT080 SCT170 25/21 A2988 =
2018-06-19 20:45 METAR KMTN 200045Z 32004KT 10SM SCT130 SCT170 26/20 A2987 =
2018-06-19 19:45 METAR KMTN 192345Z 36004KT 10SM SCT130 29/13 A2984 =
2018-06-19 18:45 METAR KMTN 192245Z 32006KT 10SM FEW055 SCT130 30/22 A2982 =
2018-06-19 17:45 METAR KMTN 192145Z 30007KT 10SM SCT032 BKN070 29/24 A2983 =
2018-06-19 16:45 METAR KMTN 192045Z 31003KT 10SM SCT049 BKN070 28/24 A2984 =
2018-06-19 15:45 METAR KMTN 191945Z 00000KT 10SM BKN060 BKN100 28/23 A2984 =
2018-06-19 14:45 METAR KMTN 191845Z 01004KT 10SM SCT040 BKN060 BKN080 29/24 A2984 =
2018-06-19 13:50 METAR KMTN 191750Z 34008KT 10SM BKN080 BKN110 29/23 A2984 =
2018-06-19 12:45 METAR KMTN 191645Z 32008KT 10SM BKN050 OVC070 30/24 A2985 =
2018-06-19 11:45 METAR KMTN 191545Z 32005KT 10SM BKN050 BKN065 BKN100 30/24 A2984 =

Support USWX by starting your Amazon purchase here.